sensor_id;sensor_type;location;lat;lon;timestamp;P1;durP1;ratioP1;P2;durP2;ratioP2
17253;SDS011;32542;52.832;13.816;2023-06-14T00:01:02;2.72;;;1.52;;
17253;SDS011;32542;52.832;13.816;2023-06-14T00:04:07;2.65;;;1.90;;
17253;SDS011;32542;52.832;13.816;2023-06-14T00:07:10;4.03;;;1.80;;
17253;SDS011;32542;52.832;13.816;2023-06-14T00:10:15;3.20;;;1.80;;
17253;SDS011;32542;52.832;13.816;2023-06-14T00:13:18;3.13;;;1.85;;
17253;SDS011;32542;52.832;13.816;2023-06-14T00:16:23;3.65;;;1.95;;
17253;SDS011;32542;52.832;13.816;2023-06-14T00:19:26;5.35;;;2.05;;
17253;SDS011;32542;52.832;13.816;2023-06-14T00:22:29;3.97;;;1.70;;
17253;SDS011;32542;52.832;13.816;2023-06-14T00:25:33;2.47;;;1.80;;
17253;SDS011;32542;52.832;13.816;2023-06-14T00:28:36;2.90;;;1.80;;
17253;SDS011;32542;52.832;13.816;2023-06-14T00:31:42;4.25;;;2.10;;
17253;SDS011;32542;52.832;13.816;2023-06-14T00:34:45;2.90;;;1.92;;
17253;SDS011;32542;52.832;13.816;2023-06-14T00:37:47;3.33;;;1.90;;
17253;SDS011;32542;52.832;13.816;2023-06-14T00:40:50;3.35;;;1.80;;
17253;SDS011;32542;52.832;13.816;2023-06-14T00:43:53;3.25;;;2.10;;
17253;SDS011;32542;52.832;13.816;2023-06-14T00:46:59;3.78;;;1.80;;
17253;SDS011;32542;52.832;13.816;2023-06-14T00:50:03;3.92;;;1.90;;
17253;SDS011;32542;52.832;13.816;2023-06-14T00:53:09;2.38;;;1.70;;
17253;SDS011;32542;52.832;13.816;2023-06-14T00:56:13;3.25;;;1.73;;
17253;SDS011;32542;52.832;13.816;2023-06-14T00:59:16;2.58;;;1.80;;
17253;SDS011;32542;52.832;13.816;2023-06-14T01:02:20;2.72;;;1.70;;
17253;SDS011;32542;52.832;13.816;2023-06-14T01:05:23;3.08;;;1.95;;
17253;SDS011;32542;52.832;13.816;2023-06-14T01:08:28;2.83;;;1.90;;
17253;SDS011;32542;52.832;13.816;2023-06-14T01:11:41;2.40;;;2.20;;
17253;SDS011;32542;52.832;13.816;2023-06-14T01:14:50;2.53;;;1.77;;
17253;SDS011;32542;52.832;13.816;2023-06-14T01:17:57;2.15;;;1.63;;
17253;SDS011;32542;52.832;13.816;2023-06-14T01:21:04;2.92;;;1.77;;
17253;SDS011;32542;52.832;13.816;2023-06-14T01:24:09;2.67;;;1.70;;
17253;SDS011;32542;52.832;13.816;2023-06-14T01:27:13;2.70;;;1.83;;
17253;SDS011;32542;52.832;13.816;2023-06-14T01:30:17;4.82;;;2.20;;
17253;SDS011;32542;52.832;13.816;2023-06-14T01:33:22;3.20;;;2.05;;
17253;SDS011;32542;52.832;13.816;2023-06-14T01:36:31;2.80;;;1.80;;
17253;SDS011;32542;52.832;13.816;2023-06-14T01:39:36;3.65;;;1.90;;
17253;SDS011;32542;52.832;13.816;2023-06-14T01:42:39;2.88;;;2.00;;
17253;SDS011;32542;52.832;13.816;2023-06-14T01:45:44;2.88;;;1.92;;
17253;SDS011;32542;52.832;13.816;2023-06-14T01:48:50;2.00;;;1.70;;
17253;SDS011;32542;52.832;13.816;2023-06-14T01:51:54;2.55;;;1.80;;
17253;SDS011;32542;52.832;13.816;2023-06-14T01:54:58;2.67;;;1.75;;
17253;SDS011;32542;52.832;13.816;2023-06-14T01:58:03;2.63;;;1.77;;
17253;SDS011;32542;52.832;13.816;2023-06-14T02:01:07;2.22;;;1.80;;
17253;SDS011;32542;52.832;13.816;2023-06-14T02:04:10;3.65;;;1.70;;
17253;SDS011;32542;52.832;13.816;2023-06-14T02:07:12;3.50;;;1.95;;
17253;SDS011;32542;52.832;13.816;2023-06-14T02:10:17;5.50;;;2.10;;
17253;SDS011;32542;52.832;13.816;2023-06-14T02:13:21;2.20;;;1.52;;
17253;SDS011;32542;52.832;13.816;2023-06-14T02:16:25;2.50;;;1.60;;
17253;SDS011;32542;52.832;13.816;2023-06-14T02:19:29;2.70;;;1.60;;
17253;SDS011;32542;52.832;13.816;2023-06-14T02:22:32;2.33;;;1.80;;
17253;SDS011;32542;52.832;13.816;2023-06-14T02:25:37;2.30;;;1.70;;
17253;SDS011;32542;52.832;13.816;2023-06-14T02:28:41;3.58;;;1.92;;
17253;SDS011;32542;52.832;13.816;2023-06-14T02:31:44;2.97;;;1.73;;
17253;SDS011;32542;52.832;13.816;2023-06-14T02:34:48;3.88;;;1.95;;
17253;SDS011;32542;52.832;13.816;2023-06-14T02:37:52;2.10;;;1.90;;
17253;SDS011;32542;52.832;13.816;2023-06-14T02:40:57;2.17;;;1.60;;
17253;SDS011;32542;52.832;13.816;2023-06-14T02:44:03;2.67;;;1.70;;
17253;SDS011;32542;52.832;13.816;2023-06-14T02:47:06;2.33;;;1.60;;
17253;SDS011;32542;52.832;13.816;2023-06-14T02:50:09;2.30;;;1.75;;
17253;SDS011;32542;52.832;13.816;2023-06-14T02:53:13;3.22;;;1.75;;
17253;SDS011;32542;52.832;13.816;2023-06-14T02:56:17;1.75;;;1.58;;
17253;SDS011;32542;52.832;13.816;2023-06-14T02:59:21;3.50;;;2.00;;
17253;SDS011;32542;52.832;13.816;2023-06-14T03:02:28;1.83;;;1.55;;
17253;SDS011;32542;52.832;13.816;2023-06-14T03:05:31;2.80;;;1.73;;
17253;SDS011;32542;52.832;13.816;2023-06-14T03:08:34;3.67;;;1.77;;
17253;SDS011;32542;52.832;13.816;2023-06-14T03:11:46;2.83;;;1.75;;
17253;SDS011;32542;52.832;13.816;2023-06-14T03:14:50;4.47;;;1.83;;
17253;SDS011;32542;52.832;13.816;2023-06-14T03:17:56;2.88;;;1.80;;
17253;SDS011;32542;52.832;13.816;2023-06-14T03:21:00;2.15;;;1.65;;
17253;SDS011;32542;52.832;13.816;2023-06-14T03:24:05;4.38;;;1.90;;
17253;SDS011;32542;52.832;13.816;2023-06-14T03:27:11;1.85;;;1.70;;
17253;SDS011;32542;52.832;13.816;2023-06-14T03:30:16;3.10;;;1.90;;
17253;SDS011;32542;52.832;13.816;2023-06-14T03:33:23;1.90;;;1.67;;
17253;SDS011;32542;52.832;13.816;2023-06-14T03:36:27;3.00;;;1.90;;
17253;SDS011;32542;52.832;13.816;2023-06-14T03:39:30;3.65;;;1.90;;
17253;SDS011;32542;52.832;13.816;2023-06-14T03:42:34;3.80;;;1.92;;
17253;SDS011;32542;52.832;13.816;2023-06-14T03:45:37;3.35;;;2.00;;
17253;SDS011;32542;52.832;13.816;2023-06-14T03:48:41;2.85;;;1.90;;
17253;SDS011;32542;52.832;13.816;2023-06-14T03:51:44;3.67;;;2.20;;
17253;SDS011;32542;52.832;13.816;2023-06-14T03:54:54;3.85;;;2.10;;
17253;SDS011;32542;52.832;13.816;2023-06-14T03:58:19;2.20;;;1.67;;
17253;SDS011;32542;52.832;13.816;2023-06-14T04:01:22;4.25;;;2.17;;
17253;SDS011;32542;52.832;13.816;2023-06-14T04:04:33;2.28;;;1.80;;
17253;SDS011;32542;52.832;13.816;2023-06-14T04:07:38;7.95;;;2.00;;
17253;SDS011;32542;52.832;13.816;2023-06-14T04:10:43;2.80;;;2.13;;
17253;SDS011;32542;52.832;13.816;2023-06-14T04:13:49;2.22;;;1.90;;
17253;SDS011;32542;52.832;13.816;2023-06-14T04:16:55;2.88;;;1.88;;
17253;SDS011;32542;52.832;13.816;2023-06-14T04:19:58;3.00;;;2.00;;
17253;SDS011;32542;52.832;13.816;2023-06-14T04:23:10;3.55;;;2.30;;
17253;SDS011;32542;52.832;13.816;2023-06-14T04:26:15;4.45;;;2.15;;
17253;SDS011;32542;52.832;13.816;2023-06-14T04:29:21;4.10;;;2.30;;
17253;SDS011;32542;52.832;13.816;2023-06-14T04:32:32;4.93;;;2.10;;
17253;SDS011;32542;52.832;13.816;2023-06-14T04:35:42;2.67;;;1.92;;
17253;SDS011;32542;52.832;13.816;2023-06-14T04:38:52;5.60;;;2.30;;
17253;SDS011;32542;52.832;13.816;2023-06-14T04:41:58;5.75;;;2.20;;
17253;SDS011;32542;52.832;13.816;2023-06-14T04:45:04;3.95;;;2.50;;
17253;SDS011;32542;52.832;13.816;2023-06-14T04:48:08;7.45;;;2.58;;
17253;SDS011;32542;52.832;13.816;2023-06-14T04:51:12;3.72;;;2.38;;
17253;SDS011;32542;52.832;13.816;2023-06-14T04:54:17;4.75;;;2.35;;
17253;SDS011;32542;52.832;13.816;2023-06-14T04:57:21;2.75;;;2.13;;
17253;SDS011;32542;52.832;13.816;2023-06-14T05:00:31;3.83;;;2.15;;
17253;SDS011;32542;52.832;13.816;2023-06-14T05:03:34;3.22;;;2.42;;
17253;SDS011;32542;52.832;13.816;2023-06-14T05:06:37;3.00;;;2.10;;
17253;SDS011;32542;52.832;13.816;2023-06-14T05:09:40;3.88;;;2.20;;
17253;SDS011;32542;52.832;13.816;2023-06-14T05:12:44;3.33;;;2.30;;
17253;SDS011;32542;52.832;13.816;2023-06-14T05:15:49;3.22;;;1.95;;
17253;SDS011;32542;52.832;13.816;2023-06-14T05:18:52;3.38;;;2.15;;
17253;SDS011;32542;52.832;13.816;2023-06-14T05:21:55;4.60;;;2.20;;
17253;SDS011;32542;52.832;13.816;2023-06-14T05:24:58;5.43;;;2.33;;
17253;SDS011;32542;52.832;13.816;2023-06-14T05:28:01;2.90;;;1.98;;
17253;SDS011;32542;52.832;13.816;2023-06-14T05:31:05;4.88;;;2.17;;
17253;SDS011;32542;52.832;13.816;2023-06-14T05:34:08;4.93;;;2.30;;
17253;SDS011;32542;52.832;13.816;2023-06-14T05:37:11;5.55;;;2.55;;
17253;SDS011;32542;52.832;13.816;2023-06-14T05:40:14;4.28;;;2.47;;
17253;SDS011;32542;52.832;13.816;2023-06-14T05:43:18;7.78;;;2.50;;
17253;SDS011;32542;52.832;13.816;2023-06-14T05:46:23;10.93;;;2.65;;
17253;SDS011;32542;52.832;13.816;2023-06-14T05:49:27;3.40;;;2.30;;
17253;SDS011;32542;52.832;13.816;2023-06-14T05:52:30;4.05;;;2.45;;
17253;SDS011;32542;52.832;13.816;2023-06-14T05:55:33;6.22;;;2.30;;
17253;SDS011;32542;52.832;13.816;2023-06-14T05:58:37;5.35;;;2.42;;
17253;SDS011;32542;52.832;13.816;2023-06-14T06:01:41;7.72;;;2.58;;
17253;SDS011;32542;52.832;13.816;2023-06-14T06:04:45;3.72;;;2.28;;
17253;SDS011;32542;52.832;13.816;2023-06-14T06:07:48;6.15;;;2.90;;
17253;SDS011;32542;52.832;13.816;2023-06-14T06:10:51;7.60;;;2.42;;
17253;SDS011;32542;52.832;13.816;2023-06-14T06:13:54;6.97;;;2.50;;
17253;SDS011;32542;52.832;13.816;2023-06-14T06:16:58;8.70;;;2.58;;
17253;SDS011;32542;52.832;13.816;2023-06-14T06:20:01;9.82;;;2.78;;
17253;SDS011;32542;52.832;13.816;2023-06-14T06:23:04;6.88;;;2.60;;
17253;SDS011;32542;52.832;13.816;2023-06-14T06:26:09;6.03;;;2.92;;
17253;SDS011;32542;52.832;13.816;2023-06-14T06:29:12;5.93;;;2.53;;
17253;SDS011;32542;52.832;13.816;2023-06-14T06:32:16;6.03;;;2.55;;
17253;SDS011;32542;52.832;13.816;2023-06-14T06:35:19;7.60;;;2.65;;
17253;SDS011;32542;52.832;13.816;2023-06-14T06:38:22;5.28;;;2.80;;
17253;SDS011;32542;52.832;13.816;2023-06-14T06:41:26;7.47;;;2.60;;
17253;SDS011;32542;52.832;13.816;2023-06-14T06:44:29;5.40;;;2.80;;
17253;SDS011;32542;52.832;13.816;2023-06-14T06:47:33;3.00;;;2.58;;
17253;SDS011;32542;52.832;13.816;2023-06-14T06:50:36;7.15;;;2.70;;
17253;SDS011;32542;52.832;13.816;2023-06-14T06:53:41;4.63;;;2.63;;
17253;SDS011;32542;52.832;13.816;2023-06-14T06:56:50;7.93;;;3.03;;
17253;SDS011;32542;52.832;13.816;2023-06-14T06:59:53;6.65;;;2.90;;
17253;SDS011;32542;52.832;13.816;2023-06-14T07:02:57;6.60;;;2.70;;
17253;SDS011;32542;52.832;13.816;2023-06-14T07:06:00;8.93;;;2.70;;
17253;SDS011;32542;52.832;13.816;2023-06-14T07:09:03;8.25;;;3.00;;
17253;SDS011;32542;52.832;13.816;2023-06-14T07:12:09;9.65;;;3.28;;
17253;SDS011;32542;52.832;13.816;2023-06-14T07:15:13;10.30;;;3.03;;
17253;SDS011;32542;52.832;13.816;2023-06-14T07:18:17;10.02;;;3.08;;
17253;SDS011;32542;52.832;13.816;2023-06-14T07:21:20;9.55;;;2.45;;
17253;SDS011;32542;52.832;13.816;2023-06-14T07:24:23;4.85;;;2.67;;
17253;SDS011;32542;52.832;13.816;2023-06-14T07:27:26;6.40;;;2.67;;
17253;SDS011;32542;52.832;13.816;2023-06-14T07:30:29;4.80;;;2.83;;
17253;SDS011;32542;52.832;13.816;2023-06-14T07:33:34;6.05;;;2.80;;
17253;SDS011;32542;52.832;13.816;2023-06-14T07:36:37;3.40;;;2.45;;
17253;SDS011;32542;52.832;13.816;2023-06-14T07:39:39;8.80;;;3.00;;
17253;SDS011;32542;52.832;13.816;2023-06-14T07:42:42;10.35;;;2.70;;
17253;SDS011;32542;52.832;13.816;2023-06-14T07:45:46;4.63;;;2.83;;
17253;SDS011;32542;52.832;13.816;2023-06-14T07:49:08;6.95;;;2.85;;
17253;SDS011;32542;52.832;13.816;2023-06-14T07:52:11;6.28;;;2.80;;
17253;SDS011;32542;52.832;13.816;2023-06-14T07:55:14;7.13;;;3.03;;
17253;SDS011;32542;52.832;13.816;2023-06-14T07:58:18;6.28;;;2.60;;
17253;SDS011;32542;52.832;13.816;2023-06-14T08:01:21;6.25;;;2.85;;
17253;SDS011;32542;52.832;13.816;2023-06-14T08:04:28;7.85;;;2.85;;
17253;SDS011;32542;52.832;13.816;2023-06-14T08:07:31;10.15;;;3.10;;
17253;SDS011;32542;52.832;13.816;2023-06-14T08:10:34;11.68;;;3.20;;
17253;SDS011;32542;52.832;13.816;2023-06-14T08:13:36;12.73;;;3.30;;
17253;SDS011;32542;52.832;13.816;2023-06-14T08:16:39;9.98;;;3.30;;
17253;SDS011;32542;52.832;13.816;2023-06-14T08:19:44;7.47;;;2.80;;
17253;SDS011;32542;52.832;13.816;2023-06-14T08:22:47;6.72;;;3.17;;
17253;SDS011;32542;52.832;13.816;2023-06-14T08:25:50;12.18;;;2.95;;
17253;SDS011;32542;52.832;13.816;2023-06-14T08:28:52;12.32;;;3.50;;
17253;SDS011;32542;52.832;13.816;2023-06-14T08:31:56;13.77;;;3.50;;
17253;SDS011;32542;52.832;13.816;2023-06-14T08:35:00;11.68;;;3.30;;
17253;SDS011;32542;52.832;13.816;2023-06-14T08:38:06;7.88;;;2.92;;
17253;SDS011;32542;52.832;13.816;2023-06-14T08:41:09;13.38;;;2.80;;
17253;SDS011;32542;52.832;13.816;2023-06-14T08:44:15;10.45;;;3.45;;
17253;SDS011;32542;52.832;13.816;2023-06-14T08:47:18;9.02;;;3.17;;
17253;SDS011;32542;52.832;13.816;2023-06-14T08:50:23;13.07;;;3.00;;
17253;SDS011;32542;52.832;13.816;2023-06-14T08:53:32;15.85;;;3.35;;
17253;SDS011;32542;52.832;13.816;2023-06-14T08:56:39;9.73;;;3.40;;
17253;SDS011;32542;52.832;13.816;2023-06-14T08:59:45;5.45;;;2.70;;
17253;SDS011;32542;52.832;13.816;2023-06-14T09:02:53;16.73;;;3.50;;
17253;SDS011;32542;52.832;13.816;2023-06-14T09:06:01;12.90;;;3.13;;
17253;SDS011;32542;52.832;13.816;2023-06-14T09:09:05;6.90;;;2.83;;
17253;SDS011;32542;52.832;13.816;2023-06-14T09:12:09;9.27;;;2.97;;
17253;SDS011;32542;52.832;13.816;2023-06-14T09:15:13;9.18;;;2.83;;
17253;SDS011;32542;52.832;13.816;2023-06-14T09:18:18;10.02;;;2.75;;
17253;SDS011;32542;52.832;13.816;2023-06-14T09:21:23;9.50;;;3.05;;
17253;SDS011;32542;52.832;13.816;2023-06-14T09:24:27;7.50;;;3.22;;
17253;SDS011;32542;52.832;13.816;2023-06-14T09:27:30;6.05;;;2.75;;
17253;SDS011;32542;52.832;13.816;2023-06-14T09:30:36;7.18;;;2.70;;
17253;SDS011;32542;52.832;13.816;2023-06-14T09:33:41;8.02;;;2.88;;
17253;SDS011;32542;52.832;13.816;2023-06-14T09:36:50;9.73;;;3.17;;
17253;SDS011;32542;52.832;13.816;2023-06-14T09:39:53;6.82;;;3.22;;
17253;SDS011;32542;52.832;13.816;2023-06-14T09:42:57;10.75;;;3.10;;
17253;SDS011;32542;52.832;13.816;2023-06-14T09:46:01;8.38;;;3.10;;
17253;SDS011;32542;52.832;13.816;2023-06-14T09:49:05;5.57;;;2.92;;
17253;SDS011;32542;52.832;13.816;2023-06-14T09:52:10;5.90;;;2.75;;
17253;SDS011;32542;52.832;13.816;2023-06-14T09:55:16;6.88;;;2.97;;
17253;SDS011;32542;52.832;13.816;2023-06-14T09:58:21;7.13;;;3.10;;
17253;SDS011;32542;52.832;13.816;2023-06-14T10:01:29;6.80;;;2.83;;
17253;SDS011;32542;52.832;13.816;2023-06-14T10:04:33;7.25;;;3.03;;
17253;SDS011;32542;52.832;13.816;2023-06-14T10:07:38;6.68;;;3.00;;
17253;SDS011;32542;52.832;13.816;2023-06-14T10:10:44;6.57;;;3.25;;
17253;SDS011;32542;52.832;13.816;2023-06-14T10:13:47;8.13;;;2.97;;
17253;SDS011;32542;52.832;13.816;2023-06-14T10:16:52;9.35;;;2.90;;
17253;SDS011;32542;52.832;13.816;2023-06-14T10:20:06;7.35;;;3.30;;
17253;SDS011;32542;52.832;13.816;2023-06-14T10:23:22;8.60;;;3.00;;
17253;SDS011;32542;52.832;13.816;2023-06-14T10:26:27;7.82;;;3.30;;
17253;SDS011;32542;52.832;13.816;2023-06-14T10:29:30;6.82;;;3.22;;
17253;SDS011;32542;52.832;13.816;2023-06-14T10:32:34;11.13;;;3.55;;
17253;SDS011;32542;52.832;13.816;2023-06-14T10:35:37;9.93;;;2.90;;
17253;SDS011;32542;52.832;13.816;2023-06-14T10:38:41;6.05;;;3.13;;
17253;SDS011;32542;52.832;13.816;2023-06-14T10:41:50;9.60;;;3.45;;
17253;SDS011;32542;52.832;13.816;2023-06-14T10:44:55;6.20;;;3.20;;
17253;SDS011;32542;52.832;13.816;2023-06-14T10:48:00;11.40;;;3.00;;
17253;SDS011;32542;52.832;13.816;2023-06-14T10:51:04;10.18;;;3.10;;
17253;SDS011;32542;52.832;13.816;2023-06-14T10:54:09;11.73;;;3.40;;
17253;SDS011;32542;52.832;13.816;2023-06-14T10:57:14;5.85;;;3.08;;
17253;SDS011;32542;52.832;13.816;2023-06-14T11:00:17;8.80;;;3.38;;
17253;SDS011;32542;52.832;13.816;2023-06-14T11:03:35;8.00;;;3.22;;
17253;SDS011;32542;52.832;13.816;2023-06-14T11:06:47;6.22;;;2.80;;
17253;SDS011;32542;52.832;13.816;2023-06-14T11:10:05;7.45;;;3.15;;
17253;SDS011;32542;52.832;13.816;2023-06-14T11:13:17;4.70;;;2.88;;
17253;SDS011;32542;52.832;13.816;2023-06-14T11:16:20;5.38;;;2.80;;
17253;SDS011;32542;52.832;13.816;2023-06-14T11:19:28;6.53;;;2.92;;
17253;SDS011;32542;52.832;13.816;2023-06-14T11:22:38;8.85;;;2.80;;
17253;SDS011;32542;52.832;13.816;2023-06-14T11:25:43;6.18;;;2.80;;
17253;SDS011;32542;52.832;13.816;2023-06-14T11:28:54;12.18;;;3.50;;
17253;SDS011;32542;52.832;13.816;2023-06-14T11:31:58;10.35;;;2.47;;
17253;SDS011;32542;52.832;13.816;2023-06-14T11:35:01;8.40;;;3.13;;
17253;SDS011;32542;52.832;13.816;2023-06-14T11:38:06;6.63;;;3.13;;
17253;SDS011;32542;52.832;13.816;2023-06-14T11:41:10;7.82;;;2.80;;
17253;SDS011;32542;52.832;13.816;2023-06-14T11:44:13;9.20;;;3.67;;
17253;SDS011;32542;52.832;13.816;2023-06-14T11:47:16;10.50;;;3.00;;
17253;SDS011;32542;52.832;13.816;2023-06-14T11:50:19;10.07;;;3.08;;
17253;SDS011;32542;52.832;13.816;2023-06-14T11:53:24;22.10;;;3.70;;
17253;SDS011;32542;52.832;13.816;2023-06-14T11:56:29;31.67;;;3.65;;
17253;SDS011;32542;52.832;13.816;2023-06-14T11:59:37;21.30;;;3.83;;
17253;SDS011;32542;52.832;13.816;2023-06-14T12:02:40;16.58;;;3.40;;
17253;SDS011;32542;52.832;13.816;2023-06-14T12:05:44;17.67;;;4.10;;
17253;SDS011;32542;52.832;13.816;2023-06-14T12:08:47;20.70;;;4.05;;
17253;SDS011;32542;52.832;13.816;2023-06-14T12:11:52;12.77;;;2.97;;
17253;SDS011;32542;52.832;13.816;2023-06-14T12:15:02;10.32;;;3.15;;
17253;SDS011;32542;52.832;13.816;2023-06-14T12:18:07;11.77;;;3.58;;
17253;SDS011;32542;52.832;13.816;2023-06-14T12:21:10;13.27;;;3.08;;
17253;SDS011;32542;52.832;13.816;2023-06-14T12:24:13;7.35;;;3.10;;
17253;SDS011;32542;52.832;13.816;2023-06-14T12:27:18;15.98;;;3.47;;
17253;SDS011;32542;52.832;13.816;2023-06-14T12:30:25;28.02;;;4.38;;
17253;SDS011;32542;52.832;13.816;2023-06-14T12:33:28;11.77;;;3.33;;
17253;SDS011;32542;52.832;13.816;2023-06-14T12:36:31;16.67;;;3.55;;
17253;SDS011;32542;52.832;13.816;2023-06-14T12:39:35;10.85;;;3.00;;
17253;SDS011;32542;52.832;13.816;2023-06-14T12:42:42;19.02;;;3.65;;
17253;SDS011;32542;52.832;13.816;2023-06-14T12:45:45;16.30;;;3.30;;
17253;SDS011;32542;52.832;13.816;2023-06-14T12:48:48;10.27;;;3.00;;
17253;SDS011;32542;52.832;13.816;2023-06-14T12:51:51;12.82;;;3.65;;
17253;SDS011;32542;52.832;13.816;2023-06-14T12:54:54;14.10;;;3.53;;
17253;SDS011;32542;52.832;13.816;2023-06-14T12:57:58;17.30;;;3.20;;
17253;SDS011;32542;52.832;13.816;2023-06-14T13:01:01;20.67;;;3.53;;
17253;SDS011;32542;52.832;13.816;2023-06-14T13:04:04;21.05;;;3.95;;
17253;SDS011;32542;52.832;13.816;2023-06-14T13:07:08;12.95;;;3.50;;
17253;SDS011;32542;52.832;13.816;2023-06-14T13:10:11;8.63;;;3.10;;
17253;SDS011;32542;52.832;13.816;2023-06-14T13:13:16;11.07;;;2.83;;
17253;SDS011;32542;52.832;13.816;2023-06-14T13:16:19;9.73;;;3.25;;
17253;SDS011;32542;52.832;13.816;2023-06-14T13:19:22;9.60;;;3.28;;
17253;SDS011;32542;52.832;13.816;2023-06-14T13:22:25;9.48;;;3.47;;
17253;SDS011;32542;52.832;13.816;2023-06-14T13:25:28;6.15;;;2.75;;
17253;SDS011;32542;52.832;13.816;2023-06-14T13:28:32;9.27;;;3.25;;
17253;SDS011;32542;52.832;13.816;2023-06-14T13:31:36;11.50;;;3.00;;
17253;SDS011;32542;52.832;13.816;2023-06-14T13:34:39;13.48;;;3.22;;
17253;SDS011;32542;52.832;13.816;2023-06-14T13:37:42;15.30;;;3.40;;
17253;SDS011;32542;52.832;13.816;2023-06-14T13:40:45;7.10;;;2.60;;
17253;SDS011;32542;52.832;13.816;2023-06-14T13:43:49;3.92;;;2.72;;
17253;SDS011;32542;52.832;13.816;2023-06-14T13:46:52;9.00;;;3.15;;
17253;SDS011;32542;52.832;13.816;2023-06-14T13:49:55;6.88;;;3.20;;
17253;SDS011;32542;52.832;13.816;2023-06-14T13:52:58;12.15;;;3.78;;
17253;SDS011;32542;52.832;13.816;2023-06-14T13:56:02;9.23;;;3.10;;
17253;SDS011;32542;52.832;13.816;2023-06-14T13:59:06;9.52;;;3.08;;
17253;SDS011;32542;52.832;13.816;2023-06-14T14:02:09;9.80;;;3.33;;
17253;SDS011;32542;52.832;13.816;2023-06-14T14:05:13;9.25;;;3.47;;
17253;SDS011;32542;52.832;13.816;2023-06-14T14:08:16;7.75;;;2.75;;
17253;SDS011;32542;52.832;13.816;2023-06-14T14:11:19;7.72;;;2.60;;
17253;SDS011;32542;52.832;13.816;2023-06-14T14:14:24;6.70;;;2.92;;
17253;SDS011;32542;52.832;13.816;2023-06-14T14:17:27;4.72;;;2.60;;
17253;SDS011;32542;52.832;13.816;2023-06-14T14:20:30;4.80;;;2.53;;
17253;SDS011;32542;52.832;13.816;2023-06-14T14:23:33;3.20;;;2.42;;
17253;SDS011;32542;52.832;13.816;2023-06-14T14:26:36;5.57;;;3.13;;
17253;SDS011;32542;52.832;13.816;2023-06-14T14:29:40;10.27;;;2.95;;
17253;SDS011;32542;52.832;13.816;2023-06-14T14:32:43;8.00;;;2.83;;
17253;SDS011;32542;52.832;13.816;2023-06-14T14:35:46;10.55;;;2.65;;
17253;SDS011;32542;52.832;13.816;2023-06-14T14:38:49;8.82;;;2.95;;
17253;SDS011;32542;52.832;13.816;2023-06-14T14:41:53;15.00;;;3.92;;
17253;SDS011;32542;52.832;13.816;2023-06-14T14:44:57;26.58;;;4.72;;
17253;SDS011;32542;52.832;13.816;2023-06-14T14:48:00;27.42;;;4.65;;
17253;SDS011;32542;52.832;13.816;2023-06-14T14:51:03;19.23;;;4.20;;
17253;SDS011;32542;52.832;13.816;2023-06-14T14:54:06;24.88;;;4.25;;
17253;SDS011;32542;52.832;13.816;2023-06-14T15:00:39;13.00;;;3.53;;
17253;SDS011;32542;52.832;13.816;2023-06-14T15:03:41;11.73;;;3.58;;
17253;SDS011;32542;52.832;13.816;2023-06-14T15:06:59;13.88;;;3.38;;
17253;SDS011;32542;52.832;13.816;2023-06-14T15:10:02;8.43;;;3.25;;
17253;SDS011;32542;52.832;13.816;2023-06-14T15:13:08;14.05;;;3.42;;
17253;SDS011;32542;52.832;13.816;2023-06-14T15:16:12;9.90;;;3.70;;
17253;SDS011;32542;52.832;13.816;2023-06-14T15:19:17;15.57;;;3.45;;
17253;SDS011;32542;52.832;13.816;2023-06-14T15:22:20;7.35;;;3.00;;
17253;SDS011;32542;52.832;13.816;2023-06-14T15:25:23;12.13;;;3.03;;
17253;SDS011;32542;52.832;13.816;2023-06-14T15:28:26;6.72;;;2.55;;
17253;SDS011;32542;52.832;13.816;2023-06-14T15:31:31;8.88;;;2.88;;
17253;SDS011;32542;52.832;13.816;2023-06-14T15:34:34;6.22;;;2.95;;
17253;SDS011;32542;52.832;13.816;2023-06-14T15:37:39;8.73;;;2.92;;
17253;SDS011;32542;52.832;13.816;2023-06-14T15:40:42;9.48;;;3.55;;
17253;SDS011;32542;52.832;13.816;2023-06-14T15:43:44;5.97;;;2.97;;
17253;SDS011;32542;52.832;13.816;2023-06-14T15:46:49;5.55;;;3.45;;
17253;SDS011;32542;52.832;13.816;2023-06-14T15:49:52;4.93;;;3.33;;
17253;SDS011;32542;52.832;13.816;2023-06-14T15:52:55;9.60;;;3.80;;
17253;SDS011;32542;52.832;13.816;2023-06-14T15:55:58;6.25;;;3.13;;
17253;SDS011;32542;52.832;13.816;2023-06-14T15:59:01;6.93;;;3.13;;
17253;SDS011;32542;52.832;13.816;2023-06-14T16:02:05;9.20;;;3.30;;
17253;SDS011;32542;52.832;13.816;2023-06-14T16:05:08;7.53;;;3.05;;
17253;SDS011;32542;52.832;13.816;2023-06-14T16:08:11;8.05;;;3.70;;
17253;SDS011;32542;52.832;13.816;2023-06-14T16:11:36;6.38;;;3.15;;
17253;SDS011;32542;52.832;13.816;2023-06-14T16:14:39;6.28;;;3.08;;
17253;SDS011;32542;52.832;13.816;2023-06-14T16:17:43;10.75;;;3.80;;
17253;SDS011;32542;52.832;13.816;2023-06-14T16:20:46;5.60;;;3.50;;
17253;SDS011;32542;52.832;13.816;2023-06-14T16:23:49;9.20;;;3.90;;
17253;SDS011;32542;52.832;13.816;2023-06-14T16:26:52;5.97;;;3.50;;
17253;SDS011;32542;52.832;13.816;2023-06-14T16:29:55;9.00;;;3.90;;
17253;SDS011;32542;52.832;13.816;2023-06-14T16:33:00;7.20;;;3.50;;
17253;SDS011;32542;52.832;13.816;2023-06-14T16:36:03;6.68;;;3.50;;
17253;SDS011;32542;52.832;13.816;2023-06-14T16:39:06;6.22;;;3.30;;
17253;SDS011;32542;52.832;13.816;2023-06-14T16:42:09;7.57;;;3.55;;
17253;SDS011;32542;52.832;13.816;2023-06-14T16:45:12;8.45;;;3.53;;
17253;SDS011;32542;52.832;13.816;2023-06-14T16:48:16;4.50;;;3.33;;
17253;SDS011;32542;52.832;13.816;2023-06-14T16:51:19;5.28;;;3.80;;
17253;SDS011;32542;52.832;13.816;2023-06-14T16:54:22;4.32;;;3.45;;
17253;SDS011;32542;52.832;13.816;2023-06-14T16:57:25;8.57;;;3.30;;
17253;SDS011;32542;52.832;13.816;2023-06-14T17:00:28;8.18;;;3.40;;
17253;SDS011;32542;52.832;13.816;2023-06-14T17:03:32;9.02;;;3.90;;
17253;SDS011;32542;52.832;13.816;2023-06-14T17:06:35;6.93;;;3.90;;
17253;SDS011;32542;52.832;13.816;2023-06-14T17:09:39;11.52;;;4.00;;
17253;SDS011;32542;52.832;13.816;2023-06-14T17:12:42;6.25;;;3.30;;
17253;SDS011;32542;52.832;13.816;2023-06-14T17:15:45;7.38;;;3.70;;
17253;SDS011;32542;52.832;13.816;2023-06-14T17:18:49;6.65;;;3.20;;
17253;SDS011;32542;52.832;13.816;2023-06-14T17:21:52;6.10;;;3.30;;
17253;SDS011;32542;52.832;13.816;2023-06-14T17:24:55;5.78;;;2.80;;
17253;SDS011;32542;52.832;13.816;2023-06-14T17:27:58;5.43;;;3.28;;
17253;SDS011;32542;52.832;13.816;2023-06-14T17:31:01;6.05;;;3.13;;
17253;SDS011;32542;52.832;13.816;2023-06-14T17:34:05;7.80;;;3.22;;
17253;SDS011;32542;52.832;13.816;2023-06-14T17:37:08;5.88;;;3.03;;
17253;SDS011;32542;52.832;13.816;2023-06-14T17:40:11;7.43;;;3.38;;
17253;SDS011;32542;52.832;13.816;2023-06-14T17:43:15;6.90;;;3.05;;
17253;SDS011;32542;52.832;13.816;2023-06-14T17:46:17;5.05;;;3.63;;
17253;SDS011;32542;52.832;13.816;2023-06-14T17:49:22;6.43;;;2.95;;
17253;SDS011;32542;52.832;13.816;2023-06-14T17:52:27;4.55;;;2.97;;
17253;SDS011;32542;52.832;13.816;2023-06-14T17:55:31;9.68;;;3.70;;
17253;SDS011;32542;52.832;13.816;2023-06-14T17:58:35;6.93;;;2.92;;
17253;SDS011;32542;52.832;13.816;2023-06-14T18:01:37;4.72;;;3.10;;
17253;SDS011;32542;52.832;13.816;2023-06-14T18:04:42;7.70;;;3.30;;
17253;SDS011;32542;52.832;13.816;2023-06-14T18:07:44;6.75;;;3.40;;
17253;SDS011;32542;52.832;13.816;2023-06-14T18:10:47;5.80;;;3.33;;
17253;SDS011;32542;52.832;13.816;2023-06-14T18:13:50;5.78;;;3.20;;